Time;durP1;ratioP1;P1;durP2;ratioP2;P2;SDS_P1;SDS_P2;PMS_P1;PMS_P2;Temp;Humidity;BMP_temperature;BMP_pressure;BME280_temperature;BME280_humidity;BME280_pressure;Samples;Min_cycle;Max_cycle;Signal;HPM_P1;HPM_P2
2023/05/31 00:01:56;;;;;;;6.30;2.80;;;18.30;50.80;;;;;;5113579;28;20408;-68
2023/05/31 00:04:21;;;;;;;6.90;2.38;;;18.30;50.80;;;;;;5114973;28;20127;-68
2023/05/31 00:06:47;;;;;;;7.95;2.67;;;18.20;51.10;;;;;;5114998;28;20569;-68
2023/05/31 00:09:13;;;;;;;6.38;2.75;;;18.20;51.00;;;;;;5116343;28;20036;-67
2023/05/31 00:11:38;;;;;;;6.03;2.58;;;18.20;50.90;;;;;;5115312;28;20024;-68
2023/05/31 00:14:04;;;;;;;5.70;2.47;;;18.20;51.00;;;;;;5114520;28;20027;-68
2023/05/31 00:16:29;;;;;;;9.88;2.60;;;18.20;51.40;;;;;;5115173;28;20030;-68
2023/05/31 00:18:55;;;;;;;8.82;2.63;;;18.20;51.20;;;;;;5114756;28;20114;-68
2023/05/31 00:21:21;;;;;;;12.02;2.95;;;18.20;50.90;;;;;;5115016;28;20025;-68
2023/05/31 00:23:47;;;;;;;5.20;2.50;;;18.10;51.10;;;;;;5114738;28;20032;-67
2023/05/31 00:26:13;;;;;;;8.27;2.47;;;18.10;51.20;;;;;;5114675;28;20019;-67
2023/05/31 00:28:39;;;;;;;6.45;2.50;;;18.10;51.30;;;;;;5115046;28;20102;-68
2023/05/31 00:31:04;;;;;;;4.78;2.58;;;18.10;51.20;;;;;;5114577;28;20019;-67
2023/05/31 00:33:30;;;;;;;10.38;2.90;;;18.00;50.90;;;;;;5114460;28;20023;-67
2023/05/31 00:35:55;;;;;;;6.45;2.50;;;18.00;51.20;;;;;;5114674;28;20031;-67
2023/05/31 00:38:21;;;;;;;6.00;2.60;;;18.00;51.10;;;;;;5115071;28;20081;-67
2023/05/31 00:40:47;;;;;;;5.00;2.65;;;18.00;51.10;;;;;;5114124;28;20066;-68
2023/05/31 00:43:13;;;;;;;5.53;2.53;;;18.00;51.10;;;;;;5114206;28;20425;-67
2023/05/31 00:45:39;;;;;;;5.00;2.53;;;18.00;51.50;;;;;;5114419;28;20054;-67
2023/05/31 00:48:05;;;;;;;8.73;2.70;;;18.00;51.20;;;;;;5114075;28;20026;-67
2023/05/31 00:50:31;;;;;;;12.48;3.00;;;17.90;51.40;;;;;;5114155;28;20388;-68
2023/05/31 00:52:59;;;;;;;7.05;2.85;;;17.80;51.20;;;;;;5114086;28;20027;-68
2023/05/31 00:55:25;;;;;;;7.45;2.80;;;17.80;51.20;;;;;;5114454;28;20379;-67
2023/05/31 00:57:51;;;;;;;6.32;2.97;;;17.80;51.20;;;;;;5114299;28;20034;-67
2023/05/31 01:00:17;;;;;;;5.15;2.58;;;17.70;51.30;;;;;;5113518;28;20471;-67
2023/05/31 01:02:43;;;;;;;8.30;2.88;;;17.80;51.40;;;;;;5113983;28;20034;-68
2023/05/31 01:05:09;;;;;;;5.18;2.63;;;17.80;51.50;;;;;;5113808;28;20024;-67
2023/05/31 01:07:36;;;;;;;6.72;2.70;;;17.80;51.70;;;;;;5114085;28;20059;-67
2023/05/31 01:10:03;;;;;;;7.13;3.03;;;17.80;51.90;;;;;;5113476;28;20024;-68
2023/05/31 01:12:46;;;;;;;6.93;2.92;;;17.70;51.70;;;;;;5114195;28;20023;-66
2023/05/31 01:15:31;;;;;;;6.50;2.58;;;17.60;52.10;;;;;;5113561;28;20023;-67
2023/05/31 01:18:09;;;;;;;8.02;2.85;;;17.60;52.30;;;;;;5114073;28;20045;-67
2023/05/31 01:20:37;;;;;;;6.95;2.75;;;17.60;52.30;;;;;;5113609;28;20468;-67
2023/05/31 01:23:26;;;;;;;7.32;2.65;;;17.60;52.00;;;;;;5113614;28;20063;-68
2023/05/31 01:25:55;;;;;;;7.65;2.80;;;17.50;52.10;;;;;;5113873;28;20020;-68
2023/05/31 01:28:23;;;;;;;7.70;2.97;;;17.50;52.40;;;;;;5113351;28;20030;-68
2023/05/31 01:30:50;;;;;;;9.25;2.58;;;17.60;52.30;;;;;;5113719;28;20024;-68
2023/05/31 01:33:17;;;;;;;6.65;2.90;;;17.50;52.40;;;;;;5113587;28;20123;-66
2023/05/31 01:35:43;;;;;;;7.80;2.38;;;17.50;52.60;;;;;;5113308;28;20413;-66
2023/05/31 01:38:08;;;;;;;7.53;2.72;;;17.50;52.80;;;;;;5112879;28;20145;-68
2023/05/31 01:40:35;;;;;;;10.55;2.40;;;17.50;52.40;;;;;;5113563;28;20044;-69
2023/05/31 01:43:02;;;;;;;8.18;2.72;;;17.50;52.60;;;;;;5112666;28;20092;-67
2023/05/31 01:45:29;;;;;;;7.25;2.65;;;17.40;52.60;;;;;;5113406;28;20044;-68
2023/05/31 01:48:00;;;;;;;5.55;2.58;;;17.50;53.10;;;;;;5112801;28;20410;-68
2023/05/31 01:50:26;;;;;;;4.45;2.70;;;17.40;52.80;;;;;;5113144;28;20072;-68
2023/05/31 01:52:52;;;;;;;8.13;2.92;;;17.40;52.70;;;;;;5113435;28;20039;-68
2023/05/31 01:55:18;;;;;;;6.90;2.90;;;17.50;52.80;;;;;;5112904;28;20039;-68
2023/05/31 01:57:46;;;;;;;11.77;2.60;;;17.50;52.90;;;;;;5113156;28;20041;-68
2023/05/31 02:00:14;;;;;;;8.07;3.33;;;17.40;52.90;;;;;;5112418;28;20432;-68
2023/05/31 02:02:44;;;;;;;7.45;2.70;;;17.40;53.20;;;;;;5113112;28;20118;-68
2023/05/31 02:05:13;;;;;;;8.65;3.10;;;17.40;53.60;;;;;;5112757;28;20055;-68
2023/05/31 02:07:44;;;;;;;9.40;3.78;;;17.30;54.00;;;;;;5113015;28;20019;-68
2023/05/31 02:10:10;;;;;;;7.68;2.95;;;17.30;54.60;;;;;;5112922;28;20024;-68
2023/05/31 02:12:36;;;;;;;10.40;3.22;;;17.20;54.80;;;;;;5112906;28;20063;-68
2023/05/31 02:15:03;;;;;;;7.25;2.92;;;17.10;55.30;;;;;;5112729;28;20058;-68
2023/05/31 02:17:32;;;;;;;7.90;3.25;;;17.00;56.20;;;;;;5112853;28;20036;-68
2023/05/31 02:19:58;;;;;;;10.40;3.60;;;16.90;56.00;;;;;;5112190;28;20387;-68
2023/05/31 02:22:24;;;;;;;5.13;2.40;;;16.90;56.40;;;;;;5112628;28;20484;-68
2023/05/31 02:24:50;;;;;;;4.20;2.47;;;16.90;56.50;;;;;;5112548;28;20027;-68
2023/05/31 02:27:16;;;;;;;8.55;3.03;;;16.80;56.60;;;;;;5116828;28;20062;-68
2023/05/31 02:29:44;;;;;;;8.60;3.28;;;16.70;56.90;;;;;;5117096;28;20027;-68
2023/05/31 02:32:09;;;;;;;8.77;2.92;;;16.60;57.20;;;;;;5116510;28;20461;-68
2023/05/31 02:34:36;;;;;;;6.88;3.40;;;16.60;57.30;;;;;;5117200;28;20032;-68
2023/05/31 02:37:02;;;;;;;8.32;3.28;;;16.50;57.80;;;;;;5117106;28;20408;-68
2023/05/31 02:39:28;;;;;;;5.40;2.83;;;16.40;58.10;;;;;;5116927;28;20031;-68
2023/05/31 02:41:54;;;;;;;7.68;3.05;;;16.50;58.40;;;;;;5116560;28;20031;-68
2023/05/31 02:44:20;;;;;;;10.82;3.05;;;16.40;58.90;;;;;;5116209;28;20036;-67
2023/05/31 02:46:46;;;;;;;9.60;3.17;;;16.30;59.10;;;;;;5116261;28;20048;-69
2023/05/31 02:49:12;;;;;;;5.22;2.53;;;16.30;59.10;;;;;;5114433;28;20391;-67
2023/05/31 02:51:37;;;;;;;9.50;2.95;;;16.20;59.20;;;;;;5116980;28;20023;-67
2023/05/31 02:54:03;;;;;;;8.82;2.85;;;16.20;59.20;;;;;;5116308;28;20068;-73
2023/05/31 02:56:29;;;;;;;10.00;2.72;;;16.20;59.40;;;;;;5116334;28;20049;-68
2023/05/31 02:58:56;;;;;;;8.15;2.92;;;16.10;59.50;;;;;;5116693;28;20479;-68
2023/05/31 03:01:21;;;;;;;7.30;3.13;;;16.00;59.70;;;;;;5115858;28;20460;-68
2023/05/31 03:03:47;;;;;;;7.45;3.38;;;15.90;60.00;;;;;;5116164;28;20069;-68
2023/05/31 03:06:16;;;;;;;7.75;2.60;;;15.80;60.10;;;;;;5115438;28;20022;-67
2023/05/31 03:08:42;;;;;;;7.32;2.88;;;15.80;60.40;;;;;;5115706;28;20460;-68
2023/05/31 03:11:08;;;;;;;7.00;3.45;;;15.60;60.90;;;;;;5114369;28;20035;-68
2023/05/31 03:13:33;;;;;;;10.00;3.10;;;15.50;61.30;;;;;;5115691;28;20027;-68
2023/05/31 03:16:00;;;;;;;10.77;3.47;;;15.40;61.40;;;;;;5115761;28;20034;-68
2023/05/31 03:18:26;;;;;;;8.75;3.53;;;15.40;61.80;;;;;;5112591;28;20106;-68
2023/05/31 03:20:51;;;;;;;5.22;2.80;;;15.40;61.90;;;;;;5115744;28;20107;-68
2023/05/31 03:23:17;;;;;;;10.25;3.03;;;15.30;62.00;;;;;;5114980;28;20061;-68
2023/05/31 03:25:42;;;;;;;7.20;3.03;;;15.20;62.20;;;;;;5115779;28;20418;-68
2023/05/31 03:28:08;;;;;;;8.52;2.85;;;15.20;62.30;;;;;;5115481;28;20073;-68
2023/05/31 03:30:34;;;;;;;10.32;3.25;;;15.10;62.80;;;;;;5115338;28;20023;-68
2023/05/31 03:33:00;;;;;;;6.68;2.72;;;15.10;63.20;;;;;;5115549;28;20030;-67
2023/05/31 03:35:25;;;;;;;7.50;3.38;;;15.10;63.30;;;;;;5115069;28;20016;-67
2023/05/31 03:37:53;;;;;;;10.10;2.97;;;15.10;62.90;;;;;;5114093;28;20073;-67
2023/05/31 03:40:18;;;;;;;10.25;3.05;;;15.00;62.80;;;;;;5114685;28;20484;-67
2023/05/31 03:42:44;;;;;;;5.65;2.88;;;15.00;63.10;;;;;;5115223;28;20147;-67
2023/05/31 03:45:10;;;;;;;6.82;2.70;;;15.00;62.90;;;;;;5114566;28;20419;-67
2023/05/31 03:47:36;;;;;;;12.63;3.42;;;15.00;62.90;;;;;;5115371;28;20023;-67
2023/05/31 03:50:05;;;;;;;7.38;3.05;;;15.00;63.10;;;;;;5115372;28;20448;-69
2023/05/31 03:52:31;;;;;;;8.02;3.15;;;15.00;62.80;;;;;;5114763;28;20054;-68
2023/05/31 03:54:57;;;;;;;8.35;3.17;;;14.90;62.50;;;;;;5115489;28;20031;-66
2023/05/31 03:57:23;;;;;;;8.10;3.33;;;14.90;62.50;;;;;;5114576;28;20041;-69
2023/05/31 03:59:48;;;;;;;8.98;3.10;;;15.00;62.60;;;;;;5116405;28;20389;-69
2023/05/31 04:02:14;;;;;;;6.55;2.83;;;15.00;62.70;;;;;;5119200;28;20031;-69
2023/05/31 04:04:40;;;;;;;8.20;3.58;;;15.00;62.40;;;;;;5120373;28;20118;-68
2023/05/31 04:07:05;;;;;;;7.93;3.03;;;15.00;62.20;;;;;;5115860;28;20422;-68
2023/05/31 04:09:31;;;;;;;9.15;3.05;;;15.10;62.20;;;;;;5114722;28;20024;-66
2023/05/31 04:11:57;;;;;;;7.47;3.08;;;15.20;62.20;;;;;;5114932;28;20094;-68
2023/05/31 04:14:23;;;;;;;9.45;3.05;;;15.30;62.10;;;;;;5114876;28;20032;-68
2023/05/31 04:16:48;;;;;;;6.70;2.60;;;15.30;61.50;;;;;;5115132;28;20031;-68
2023/05/31 04:19:14;;;;;;;9.93;3.40;;;15.40;61.50;;;;;;5114507;28;20051;-68
2023/05/31 04:21:40;;;;;;;11.27;3.33;;;15.40;61.50;;;;;;5115361;28;20028;-68
2023/05/31 04:24:05;;;;;;;10.73;2.70;;;15.50;62.00;;;;;;5114984;28;20027;-68
2023/05/31 04:26:32;;;;;;;8.63;2.75;;;15.60;60.70;;;;;;5114323;28;20032;-67
2023/05/31 04:28:58;;;;;;;7.28;3.00;;;15.70;60.50;;;;;;5114768;28;20046;-68
2023/05/31 04:31:24;;;;;;;7.07;3.20;;;15.80;60.20;;;;;;5114461;28;20027;-68
2023/05/31 04:33:56;;;;;;;6.68;3.08;;;15.90;60.10;;;;;;5113079;28;20028;-67
2023/05/31 04:36:25;;;;;;;9.32;3.00;;;16.10;60.00;;;;;;5111913;28;20032;-66
2023/05/31 04:38:55;;;;;;;8.57;2.80;;;16.10;59.20;;;;;;5113997;28;20044;-66
2023/05/31 04:41:25;;;;;;;9.38;2.85;;;16.30;59.20;;;;;;5113938;27;20066;-67
2023/05/31 04:43:52;;;;;;;10.85;3.53;;;16.40;58.70;;;;;;5114118;28;20088;-68
2023/05/31 04:46:19;;;;;;;10.55;3.30;;;16.50;58.60;;;;;;5113594;28;20051;-69
2023/05/31 04:48:47;;;;;;;14.77;3.40;;;16.70;58.10;;;;;;5113768;28;20019;-68
2023/05/31 04:51:13;;;;;;;13.35;3.50;;;16.90;57.30;;;;;;5113962;28;20035;-68
2023/05/31 04:53:39;;;;;;;11.52;3.00;;;17.00;57.40;;;;;;5113871;28;20027;-69
2023/05/31 04:56:07;;;;;;;8.85;3.30;;;17.20;56.50;;;;;;5114198;28;20043;-68
2023/05/31 04:58:33;;;;;;;10.30;2.88;;;17.40;55.70;;;;;;5113281;28;20442;-67
2023/05/31 05:01:02;;;;;;;9.50;4.15;;;17.50;55.50;;;;;;5113717;28;20016;-67
2023/05/31 05:03:28;;;;;;;9.57;3.85;;;17.80;54.90;;;;;;5113415;28;20032;-67
2023/05/31 05:05:56;;;;;;;10.10;3.25;;;18.10;54.80;;;;;;5113735;28;20460;-67
2023/05/31 05:08:21;;;;;;;9.75;3.38;;;18.40;53.70;;;;;;5113192;28;20019;-67
2023/05/31 05:10:48;;;;;;;8.77;3.55;;;18.70;53.10;;;;;;5113519;28;20030;-68
2023/05/31 05:13:16;;;;;;;9.57;3.65;;;19.10;52.40;;;;;;5113549;28;20035;-67
2023/05/31 05:15:41;;;;;;;12.73;3.92;;;19.60;50.90;;;;;;5113438;28;20020;-68
2023/05/31 05:18:07;;;;;;;12.48;3.33;;;20.00;50.40;;;;;;5113470;28;20047;-67
2023/05/31 05:20:33;;;;;;;7.60;3.03;;;20.40;49.20;;;;;;5113028;28;20203;-68
2023/05/31 05:23:02;;;;;;;14.63;3.10;;;20.80;48.60;;;;;;5110056;28;20115;-68
2023/05/31 05:25:28;;;;;;;8.05;3.17;;;21.20;48.10;;;;;;5110399;28;20031;-67
2023/05/31 05:27:53;;;;;;;7.32;3.20;;;21.40;47.80;;;;;;5113634;28;20452;-67
2023/05/31 05:30:19;;;;;;;7.60;3.15;;;21.60;46.00;;;;;;5113250;28;20478;-68
2023/05/31 05:32:45;;;;;;;11.77;3.33;;;21.90;45.30;;;;;;5113157;28;20028;-68
2023/05/31 05:35:10;;;;;;;8.73;3.08;;;22.30;45.50;;;;;;5113055;28;20077;-68
2023/05/31 05:37:36;;;;;;;7.18;3.30;;;22.50;44.10;;;;;;5113079;28;20077;-67
2023/05/31 05:40:02;;;;;;;6.63;2.80;;;22.50;43.70;;;;;;5113492;28;20026;-67
2023/05/31 05:42:28;;;;;;;9.90;3.58;;;22.90;44.20;;;;;;5112941;28;20207;-68
2023/05/31 05:44:53;;;;;;;8.40;2.95;;;23.30;44.00;;;;;;5112943;28;20016;-68
2023/05/31 05:47:19;;;;;;;9.57;3.45;;;23.50;43.00;;;;;;5112766;28;20024;-69
2023/05/31 05:49:44;;;;;;;9.32;3.53;;;23.60;41.70;;;;;;5111704;28;20065;-68
2023/05/31 05:52:10;;;;;;;8.40;3.30;;;23.90;41.60;;;;;;5109132;28;20073;-68
2023/05/31 05:54:36;;;;;;;7.35;3.30;;;24.20;41.30;;;;;;5111426;28;20363;-68
2023/05/31 05:57:03;;;;;;;8.15;3.42;;;24.60;41.30;;;;;;5111921;28;20111;-67
2023/05/31 05:59:29;;;;;;;6.35;3.20;;;25.00;39.80;;;;;;5111225;28;20020;-68
2023/05/31 06:01:54;;;;;;;8.52;3.50;;;25.50;39.10;;;;;;5110980;28;20023;-70
2023/05/31 06:04:20;;;;;;;14.23;3.50;;;25.90;39.20;;;;;;5111218;28;20122;-70
2023/05/31 06:06:45;;;;;;;8.52;3.40;;;26.30;38.10;;;;;;5110272;28;20111;-70
2023/05/31 06:09:11;;;;;;;10.70;3.35;;;26.80;37.70;;;;;;5112114;28;20464;-69
2023/05/31 06:11:37;;;;;;;8.20;3.00;;;27.30;36.70;;;;;;5112657;28;20032;-73
2023/05/31 06:14:03;;;;;;;13.07;3.30;;;27.80;35.40;;;;;;5112866;28;20023;-73
2023/05/31 06:16:28;;;;;;;5.10;3.13;;;28.20;34.90;;;;;;5112420;28;20116;-73
2023/05/31 06:18:54;;;;;;;8.27;3.28;;;28.80;34.90;;;;;;5112900;28;20049;-73
2023/05/31 06:21:20;;;;;;;6.40;3.05;;;29.30;34.10;;;;;;5111691;28;20020;-73
2023/05/31 06:23:45;;;;;;;11.93;3.25;;;29.70;33.60;;;;;;5112586;28;20426;-74
2023/05/31 06:26:11;;;;;;;6.50;3.05;;;29.90;33.00;;;;;;5112656;28;20072;-73
2023/05/31 06:28:36;;;;;;;7.82;3.25;;;30.20;32.70;;;;;;5112792;28;20027;-73
2023/05/31 06:31:02;;;;;;;8.48;3.25;;;30.00;32.60;;;;;;5112818;28;20027;-73
2023/05/31 06:33:28;;;;;;;7.80;2.72;;;30.00;32.40;;;;;;5112420;28;20043;-73
2023/05/31 06:35:53;;;;;;;7.65;2.92;;;30.20;31.90;;;;;;5113211;28;20084;-74
2023/05/31 06:38:21;;;;;;;9.98;3.17;;;30.30;32.00;;;;;;5112419;28;20364;-74
2023/05/31 06:40:47;;;;;;;7.10;3.35;;;30.70;31.70;;;;;;5112563;28;20080;-71
2023/05/31 06:43:13;;;;;;;9.32;3.30;;;30.70;32.30;;;;;;5112718;28;20385;-72
2023/05/31 06:45:41;;;;;;;8.43;3.42;;;31.20;31.90;;;;;;5112255;28;20063;-72
2023/05/31 06:48:08;;;;;;;8.07;3.10;;;31.30;31.40;;;;;;5112639;28;20113;-72
2023/05/31 06:50:34;;;;;;;8.70;3.03;;;31.10;30.80;;;;;;5112132;28;20032;-72
2023/05/31 06:53:01;;;;;;;5.35;2.47;;;31.00;31.70;;;;;;5112756;28;20055;-72
2023/05/31 06:55:26;;;;;;;7.60;3.33;;;30.30;32.10;;;;;;5112154;28;20027;-72
2023/05/31 06:57:52;;;;;;;13.23;3.20;;;29.50;32.40;;;;;;5112697;28;20032;-73
2023/05/31 07:00:19;;;;;;;8.00;3.28;;;29.00;32.40;;;;;;5112478;28;20108;-73
2023/05/31 07:02:45;;;;;;;11.88;3.83;;;28.30;33.40;;;;;;5112206;28;20031;-71
2023/05/31 07:05:10;;;;;;;7.50;3.33;;;27.80;34.20;;;;;;5112634;28;20028;-73
2023/05/31 07:07:36;;;;;;;9.32;3.53;;;27.30;34.90;;;;;;5111815;28;20444;-73
2023/05/31 07:10:02;;;;;;;5.75;3.10;;;26.80;35.70;;;;;;5112536;28;20456;-73
2023/05/31 07:12:28;;;;;;;7.15;3.50;;;26.20;36.90;;;;;;5114683;28;20104;-73
2023/05/31 07:14:54;;;;;;;6.47;3.13;;;25.90;37.60;;;;;;5116363;28;20066;-73
2023/05/31 07:17:20;;;;;;;9.00;3.75;;;25.70;38.00;;;;;;5114782;28;20110;-72
2023/05/31 07:19:47;;;;;;;9.65;3.28;;;25.70;38.30;;;;;;5115767;28;20024;-72
2023/05/31 07:22:15;;;;;;;7.95;3.28;;;25.70;38.00;;;;;;5115876;28;20023;-73
2023/05/31 07:24:42;;;;;;;10.93;2.97;;;25.50;38.40;;;;;;5115544;28;20028;-72
2023/05/31 07:27:08;;;;;;;9.05;3.72;;;25.50;39.50;;;;;;5116180;28;20040;-72
2023/05/31 07:29:34;;;;;;;7.30;3.42;;;25.40;38.40;;;;;;5115676;28;20024;-72
2023/05/31 07:32:00;;;;;;;13.07;3.78;;;25.10;39.00;;;;;;5115908;28;20106;-72
2023/05/31 07:34:26;;;;;;;8.35;3.25;;;25.40;39.30;;;;;;5115433;28;20106;-74
2023/05/31 07:36:51;;;;;;;12.63;4.00;;;25.80;39.50;;;;;;5115936;28;20527;-72
2023/05/31 07:39:18;;;;;;;10.55;3.40;;;26.50;39.40;;;;;;5115427;28;20441;-73
2023/05/31 07:41:43;;;;;;;7.22;3.38;;;27.20;37.60;;;;;;5115344;28;20024;-73
2023/05/31 07:44:09;;;;;;;7.47;3.42;;;27.60;37.50;;;;;;5115781;28;20408;-72
2023/05/31 07:46:38;;;;;;;11.65;3.65;;;28.40;36.80;;;;;;5113902;28;20051;-73
2023/05/31 07:49:03;;;;;;;7.57;3.20;;;28.90;34.50;;;;;;5115775;28;20028;-73
2023/05/31 07:51:30;;;;;;;11.27;3.30;;;29.20;34.80;;;;;;5115192;28;20077;-73
2023/05/31 07:53:56;;;;;;;7.88;3.17;;;29.00;33.80;;;;;;5115617;28;20035;-73
2023/05/31 07:56:22;;;;;;;7.15;3.03;;;29.10;35.10;;;;;;5115106;28;20396;-72
2023/05/31 07:58:47;;;;;;;7.65;3.53;;;29.20;34.80;;;;;;5114996;28;20051;-72
2023/05/31 08:01:13;;;;;;;7.00;2.85;;;29.20;33.90;;;;;;5115292;28;20380;-72
2023/05/31 08:03:40;;;;;;;10.05;3.53;;;28.40;34.80;;;;;;5114714;28;20073;-72
2023/05/31 08:06:06;;;;;;;9.82;4.10;;;28.10;36.20;;;;;;5115164;28;20024;-73
2023/05/31 08:08:35;;;;;;;9.35;3.63;;;28.20;35.20;;;;;;5114513;28;20415;-74
2023/05/31 08:11:01;;;;;;;7.82;3.30;;;28.00;36.60;;;;;;5115114;28;20030;-73
2023/05/31 08:13:29;;;;;;;7.20;3.38;;;28.10;36.50;;;;;;5115230;28;20055;-73
2023/05/31 08:15:55;;;;;;;9.00;3.45;;;28.20;36.20;;;;;;5115150;28;20196;-73
2023/05/31 08:18:21;;;;;;;7.75;3.38;;;28.30;36.10;;;;;;5114982;28;20031;-73
2023/05/31 08:20:47;;;;;;;12.93;3.72;;;28.50;36.10;;;;;;5114742;27;20024;-72
2023/05/31 08:23:19;;;;;;;7.90;3.50;;;28.60;35.80;;;;;;5114227;28;20517;-72
2023/05/31 08:25:45;;;;;;;9.70;3.25;;;28.10;35.60;;;;;;5114543;28;20172;-73
2023/05/31 08:28:11;;;;;;;6.80;3.28;;;28.10;36.00;;;;;;5114521;28;20413;-72
2023/05/31 08:30:36;;;;;;;7.68;3.42;;;28.20;36.50;;;;;;5114119;28;20028;-72
2023/05/31 08:33:02;;;;;;;7.32;3.40;;;28.50;36.70;;;;;;5114448;28;20023;-73
2023/05/31 08:35:28;;;;;;;9.15;3.47;;;28.70;37.00;;;;;;5114792;28;20038;-72
2023/05/31 08:37:54;;;;;;;8.57;3.60;;;28.70;36.40;;;;;;5114232;28;20027;-73
2023/05/31 08:40:20;;;;;;;7.82;3.30;;;28.70;36.10;;;;;;5114652;28;20024;-72
2023/05/31 08:42:51;;;;;;;10.32;3.50;;;28.50;35.80;;;;;;5114445;28;20375;-74
2023/05/31 08:45:17;;;;;;;;;;;28.20;36.20;;;;;;5115025;27;20071;-74
2023/05/31 08:47:45;;;;;;;6.88;2.80;;;28.10;36.60;;;;;;5113952;28;19943;-74
2023/05/31 08:50:12;;;;;;;9.15;3.42;;;27.80;36.70;;;;;;5114385;28;20139;-74
2023/05/31 08:52:38;;;;;;;7.93;2.88;;;27.60;37.50;;;;;;5114019;28;20031;-72
2023/05/31 08:55:05;;;;;;;8.80;3.20;;;27.60;38.10;;;;;;5114433;28;20028;-73
2023/05/31 08:57:31;;;;;;;11.48;3.95;;;27.40;37.80;;;;;;5114303;28;20063;-72
2023/05/31 08:59:58;;;;;;;12.13;3.42;;;27.30;37.80;;;;;;5114316;28;20031;-73
2023/05/31 09:02:25;;;;;;;7.68;3.38;;;27.20;38.40;;;;;;5113964;28;20368;-73
2023/05/31 09:04:50;;;;;;;13.57;3.75;;;27.00;38.80;;;;;;5113863;28;20106;-73
2023/05/31 09:07:17;;;;;;;8.30;4.43;;;27.00;39.80;;;;;;5114674;28;20104;-72
2023/05/31 09:09:43;;;;;;;10.88;3.63;;;26.90;39.20;;;;;;5113721;28;20493;-73
2023/05/31 09:12:08;;;;;;;7.60;3.50;;;26.90;40.30;;;;;;5115590;28;20031;-73
2023/05/31 09:14:34;;;;;;;6.80;3.80;;;26.90;39.50;;;;;;5114633;28;20090;-73
2023/05/31 09:17:00;;;;;;;7.63;4.00;;;26.80;40.10;;;;;;5114962;28;20376;-73
2023/05/31 09:19:26;;;;;;;6.40;3.78;;;26.70;39.90;;;;;;5114773;28;20100;-73
2023/05/31 09:21:52;;;;;;;6.75;3.75;;;26.70;39.90;;;;;;5113362;28;20055;-73
2023/05/31 09:24:19;;;;;;;6.20;3.35;;;26.40;40.70;;;;;;5113815;28;20098;-73
2023/05/31 09:26:51;;;;;;;13.50;3.83;;;26.20;40.80;;;;;;5113418;28;20050;-73
2023/05/31 09:29:18;;;;;;;8.43;3.50;;;26.10;40.60;;;;;;5113724;28;20028;-73
2023/05/31 09:31:45;;;;;;;9.45;3.90;;;26.20;41.00;;;;;;5113365;28;20353;-73
2023/05/31 09:34:40;;;;;;;10.25;4.13;;;25.80;41.20;;;;;;5113631;28;20035;-72
2023/05/31 09:37:06;;;;;;;7.97;4.18;;;25.70;41.80;;;;;;5104462;28;20039;-72
2023/05/31 09:39:32;;;;;;;12.07;3.20;;;25.80;42.20;;;;;;5112265;28;20460;-72
2023/05/31 09:42:01;;;;;;;11.60;4.18;;;25.80;42.60;;;;;;5113066;28;20039;-72
2023/05/31 09:44:30;;;;;;;11.95;3.90;;;25.70;42.20;;;;;;5113447;28;20104;-73
2023/05/31 09:46:56;;;;;;;5.47;3.40;;;25.70;41.60;;;;;;5112632;28;20047;-72
2023/05/31 09:49:22;;;;;;;6.10;3.50;;;25.60;42.90;;;;;;5112765;28;20030;-74
2023/05/31 09:51:54;;;;;;;9.68;3.63;;;25.70;42.70;;;;;;5112675;28;20031;-73
2023/05/31 09:54:24;;;;;;;7.22;3.78;;;25.70;42.40;;;;;;5111698;28;20543;-73
2023/05/31 09:56:50;;;;;;;10.60;3.67;;;25.80;42.50;;;;;;5112832;28;20051;-73
2023/05/31 09:59:16;;;;;;;10.32;3.58;;;25.90;43.20;;;;;;5112923;28;20460;-74
2023/05/31 10:01:44;;;;;;;13.65;4.07;;;25.90;42.90;;;;;;5112758;28;20024;-73
2023/05/31 10:04:10;;;;;;;10.98;3.72;;;26.00;42.90;;;;;;5112859;28;20036;-73
2023/05/31 10:06:36;;;;;;;10.55;3.70;;;26.00;43.00;;;;;;5112791;28;20118;-72
2023/05/31 10:09:03;;;;;;;8.32;3.88;;;26.10;42.80;;;;;;5112626;28;20020;-73
2023/05/31 10:11:34;;;;;;;12.27;3.38;;;26.10;42.90;;;;;;5113045;28;20024;-73
2023/05/31 10:14:08;;;;;;;11.30;4.13;;;26.30;44.00;;;;;;5112723;28;20031;-73
2023/05/31 10:16:49;;;;;;;8.85;3.60;;;26.20;42.90;;;;;;5112934;28;20028;-73
2023/05/31 10:19:24;;;;;;;11.00;3.75;;;26.20;42.70;;;;;;5113118;28;20110;-72
2023/05/31 10:21:50;;;;;;;11.77;3.97;;;26.10;42.80;;;;;;5112730;28;20110;-72
2023/05/31 10:24:28;;;;;;;10.02;3.45;;;26.10;43.10;;;;;;5112813;28;20365;-72
2023/05/31 10:27:07;;;;;;;9.75;4.03;;;26.20;43.50;;;;;;5112115;28;20054;-73
2023/05/31 10:29:42;;;;;;;9.73;3.92;;;26.20;43.60;;;;;;5111724;28;20388;-72
2023/05/31 10:32:20;;;;;;;8.25;3.58;;;26.30;43.40;;;;;;5112725;28;20471;-73
2023/05/31 10:34:46;;;;;;;10.40;3.53;;;26.50;42.90;;;;;;5112324;28;20054;-73
2023/05/31 10:37:12;;;;;;;7.47;3.45;;;26.30;42.80;;;;;;5112429;28;20023;-73
2023/05/31 10:40:05;;;;;;;11.00;3.65;;;26.40;42.80;;;;;;5113006;28;20045;-73
2023/05/31 10:43:06;;;;;;;9.18;3.33;;;26.30;43.00;;;;;;5112594;28;20028;-72
2023/05/31 10:45:38;;;;;;;11.18;4.03;;;26.50;43.30;;;;;;5112884;28;20103;-73
2023/05/31 10:48:16;;;;;;;5.65;3.45;;;26.40;42.50;;;;;;5115600;28;20472;-73
2023/05/31 10:50:59;;;;;;;7.32;3.83;;;26.50;43.80;;;;;;5116341;28;20024;-73
2023/05/31 10:53:35;;;;;;;10.13;3.78;;;26.60;42.70;;;;;;5116661;28;20039;-73
2023/05/31 10:56:04;;;;;;;7.45;3.60;;;26.60;42.70;;;;;;5115931;28;20046;-73
2023/05/31 10:58:38;;;;;;;9.75;4.07;;;26.70;43.40;;;;;;5116455;28;20027;-72
2023/05/31 11:01:11;;;;;;;7.25;4.05;;;26.60;41.60;;;;;;5116040;28;20063;-73
2023/05/31 11:03:46;;;;;;;5.43;3.50;;;26.60;41.40;;;;;;5116416;28;20135;-73
2023/05/31 11:06:14;;;;;;;7.57;3.90;;;26.60;41.90;;;;;;5116599;27;20036;-72
2023/05/31 11:08:59;;;;;;;6.32;3.20;;;26.70;40.90;;;;;;5116551;28;20436;-72
2023/05/31 11:11:26;;;;;;;7.82;3.67;;;26.60;41.40;;;;;;5116434;28;20482;-73
2023/05/31 11:14:06;;;;;;;11.68;3.90;;;26.60;40.80;;;;;;5115877;28;20055;-72
2023/05/31 11:16:33;;;;;;;5.78;3.50;;;26.50;41.20;;;;;;5116490;28;20032;-72
2023/05/31 11:19:06;;;;;;;9.10;3.63;;;26.50;42.00;;;;;;5114526;28;20042;-73
2023/05/31 11:21:48;;;;;;;7.80;3.50;;;26.50;41.90;;;;;;5116210;28;20034;-73
2023/05/31 11:24:37;;;;;;;18.10;3.70;;;26.50;41.80;;;;;;5116169;28;20023;-73
2023/05/31 11:27:05;;;;;;;10.98;3.70;;;26.60;41.40;;;;;;5115824;28;20721;-72
2023/05/31 11:29:51;;;;;;;9.25;4.00;;;26.60;41.90;;;;;;5115881;28;20118;-74
2023/05/31 11:32:21;;;;;;;9.98;3.55;;;26.50;41.30;;;;;;5116009;27;20042;-72
2023/05/31 11:34:57;;;;;;;6.43;3.63;;;26.50;41.20;;;;;;5115439;28;20034;-73
2023/05/31 11:37:30;;;;;;;11.60;4.15;;;26.50;41.70;;;;;;5115887;28;20053;-73
2023/05/31 11:40:00;;;;;;;10.15;5.10;;;26.40;41.50;;;;;;5115452;28;20028;-72
2023/05/31 11:42:30;;;;;;;6.25;3.53;;;26.50;41.70;;;;;;5115218;28;20016;-72
2023/05/31 11:44:56;;;;;;;8.50;3.90;;;26.50;41.40;;;;;;5115552;28;20486;-73
2023/05/31 11:47:33;;;;;;;6.45;3.50;;;26.60;41.40;;;;;;5115570;28;20047;-72
2023/05/31 11:50:00;;;;;;;8.00;3.47;;;26.50;41.40;;;;;;5115308;28;20032;-72
2023/05/31 11:52:25;;;;;;;9.35;4.13;;;26.60;41.60;;;;;;5115699;28;20024;-73
2023/05/31 11:54:54;;;;;;;7.95;3.75;;;26.50;42.40;;;;;;5114990;28;20092;-73
2023/05/31 11:57:20;;;;;;;8.60;3.92;;;26.50;42.50;;;;;;5114854;28;20058;-73
2023/05/31 11:59:46;;;;;;;9.25;4.30;;;26.50;41.60;;;;;;5114415;28;20383;-74
2023/05/31 12:02:12;;;;;;;10.13;4.35;;;26.40;41.30;;;;;;5115499;28;20472;-73
2023/05/31 12:04:41;;;;;;;10.02;3.88;;;26.30;41.70;;;;;;5115267;28;20456;-74
2023/05/31 12:07:25;;;;;;;9.77;4.00;;;26.40;42.10;;;;;;5114880;28;20095;-73
2023/05/31 12:09:50;;;;;;;9.95;3.97;;;26.40;41.50;;;;;;5114989;28;20024;-73
2023/05/31 12:12:16;;;;;;;11.65;4.07;;;26.40;41.80;;;;;;5115218;28;20076;-73
2023/05/31 12:14:53;;;;;;;9.80;4.15;;;26.40;41.50;;;;;;5115194;28;20023;-72
2023/05/31 12:17:19;;;;;;;7.40;3.55;;;26.30;41.30;;;;;;5115120;28;20027;-73
2023/05/31 12:19:47;;;;;;;6.88;4.05;;;26.20;41.40;;;;;;5115202;28;20111;-73
2023/05/31 12:22:13;;;;;;;10.57;4.00;;;26.10;41.20;;;;;;5114801;28;20080;-73
2023/05/31 12:24:48;;;;;;;8.75;3.72;;;26.10;41.60;;;;;;5113619;28;20027;-73
2023/05/31 12:27:15;;;;;;;8.20;4.53;;;26.10;41.90;;;;;;5114543;28;20548;-73
2023/05/31 12:29:41;;;;;;;8.65;3.92;;;26.20;42.90;;;;;;5115068;28;20051;-73
2023/05/31 12:32:07;;;;;;;8.65;4.20;;;26.10;41.70;;;;;;5114268;28;20055;-73
2023/05/31 12:34:35;;;;;;;6.63;4.32;;;26.10;41.70;;;;;;5114889;28;20035;-73
2023/05/31 12:37:05;;;;;;;9.45;3.97;;;26.00;42.00;;;;;;5114441;28;20114;-73
2023/05/31 12:39:31;;;;;;;12.57;3.92;;;25.90;41.90;;;;;;5114990;28;20024;-73
2023/05/31 12:41:57;;;;;;;10.60;4.07;;;26.00;42.10;;;;;;5114342;28;20118;-73
2023/05/31 12:44:25;;;;;;;12.88;4.15;;;26.00;41.50;;;;;;5114883;28;20030;-73
2023/05/31 12:46:51;;;;;;;7.38;4.10;;;26.00;41.90;;;;;;5113967;28;20040;-73
2023/05/31 12:49:21;;;;;;;6.75;3.50;;;26.00;42.70;;;;;;5114723;28;20067;-71